NORTHEAST SUFFOLK  -  Winter Weather Advisory Winter Weather Advisory        NORTHERN NASSAU  -  Winter Weather Advisory Winter Weather Advisory        NORTHWEST SUFFOLK  -  Winter Weather Advisory Winter Weather Advisory        SOUTHEAST SUFFOLK  -  Winter Weather Advisory Winter Weather Advisory        SOUTHERN NASSAU  -  Winter Weather Advisory Winter Weather Advisory        SOUTHWEST SUFFOLK  -  Winter Weather Advisory Winter Weather Advisory      

Active alerts

Northern Nassau
  Details for Northern Nassau Winter Weather Advisory
Southern Nassau
  Details for Southern Nassau Winter Weather Advisory
Northwest Suffolk
  Details for Northwest Suffolk Winter Weather Advisory
Southwest Suffolk
  Details for Southwest Suffolk Winter Weather Advisory
Northeast Suffolk
  Details for Northeast Suffolk Winter Weather Advisory
Southeast Suffolk
  Details for Southeast Suffolk Winter Weather Advisory


WXM80 ListenWXM80 Stop

You find our weather info also at:

UK Metoffice

WeatherCloud

Weather Underground

Northeastern Weather Network

AWEKAS

Citizen Weather Observer Program (CWOP)

HAMweather, WeatherForYou, PWS Weather


Weather Underground History page Text

Daily Summary for March 4, 2017 Units:  Metric    English   Both
« Previous Day
Next Day »
Daily Weekly Monthly Yearly Custom
  High: Low: Average:
Temperature: -0.6 °C -7.7 °C -4.2 °C
Dew Point: -10.6 °C -18.4 °C -14.3 °C
Humidity: 57 % 34 % 46 %
Wind Speed: 23.7 km/h 4.2 km/h 12.1 km/h
Wind Gust: 38.9 km/h - -
Wind:- - WNW
Pressure: 1034.4 hPa 1029 hPa -
Precipitation: 0 mm    
Historical Graphs
 
 
Tabular Data for March 4, 2017
Time Temperature Dew Point Pressure Wind Wind Speed Wind Gust Humidity Rainfall Rate (Hourly)
00:00 -3.8 °C -13.4 °C 1029 hPa WNW 13.5 km/h 20.4 km/h 47 % 0 mm
00:06 -3.8 °C -13.8 °C 1029.3 hPa NNW 18.7 km/h 27.8 km/h 46 % 0 mm
00:11 -3.9 °C -13.6 °C 1029.3 hPa WNW 8.9 km/h 20.4 km/h 47 % 0 mm
00:16 -3.9 °C -13.9 °C 1029.3 hPa WNW 15 km/h 20.9 km/h 46 % 0 mm
00:21 -4 °C -13.2 °C 1029.7 hPa WNW 13.2 km/h 35.4 km/h 49 % 0 mm
00:26 -4 °C -13.7 °C 1029.7 hPa NNW 14.3 km/h 37 km/h 47 % 0 mm
00:31 -4.1 °C -13.4 °C 1029.7 hPa NW 8.2 km/h 18.5 km/h 48 % 0 mm
00:36 -4.1 °C -12.9 °C 1030 hPa WNW 15.4 km/h 31.5 km/h 50 % 0 mm
00:41 -4.1 °C -13.3 °C 1030 hPa WNW 14.3 km/h 18.5 km/h 49 % 0 mm
00:46 -4.2 °C -13.3 °C 1030 hPa NW 14.5 km/h 29 km/h 49 % 0 mm
00:51 -4.2 °C -13.6 °C 1030 hPa WNW 13.4 km/h 31.5 km/h 48 % 0 mm
00:56 -4.3 °C -14.2 °C 1030 hPa NNW 13.2 km/h 20.4 km/h 46 % 0 mm
01:01 -4.3 °C -13.7 °C 1030 hPa NW 10.5 km/h 20.4 km/h 48 % 0 mm
01:02 -4.3 °C -13.4 °C 1030 hPa WNW 11.4 km/h 20.4 km/h 49 % 0 mm
01:07 -4.3 °C -13.4 °C 1030 hPa WNW 5.3 km/h 18.5 km/h 49 % 0 mm
01:12 -4.4 °C -13.8 °C 1030 hPa NW 14.8 km/h 31.5 km/h 48 % 0 mm
01:17 -4.4 °C -13.8 °C 1030 hPa WSW 14.3 km/h 29.6 km/h 48 % 0 mm
01:22 -4.4 °C -13.8 °C 1030 hPa NW 20.4 km/h 29.6 km/h 48 % 0 mm
01:27 -4.4 °C -13.8 °C 1030 hPa NW 17.2 km/h 25.9 km/h 48 % 0 mm
01:32 -4.5 °C -13.6 °C 1030 hPa NW 12.2 km/h 24.1 km/h 49 % 0 mm
01:37 -4.6 °C -13.7 °C 1030 hPa NW 15.9 km/h 33.3 km/h 49 % 0 mm
01:42 -4.6 °C -13.9 °C 1030 hPa NW 15.4 km/h 27.8 km/h 48 % 0 mm
01:47 -4.6 °C -13.7 °C 1030 hPa North 15.1 km/h 27.4 km/h 49 % 0 mm
01:53 -4.6 °C -13.7 °C 1030 hPa WNW 15.3 km/h 27.8 km/h 49 % 0 mm
01:58 -4.7 °C -13.5 °C 1030 hPa NW 14.5 km/h 24.1 km/h 50 % 0 mm
02:03 -4.7 °C -13.5 °C 1030 hPa NNW 13.7 km/h 27.4 km/h 50 % 0 mm
02:08 -4.7 °C -13.5 °C 1030 hPa WNW 9.7 km/h 17.7 km/h 50 % 0 mm
02:13 -4.7 °C -13.3 °C 1030 hPa NW 12.4 km/h 27.4 km/h 51 % 0 mm
02:18 -4.7 °C -13.6 °C 1030 hPa NW 11.3 km/h 27.4 km/h 50 % 0 mm
02:23 -4.7 °C -13.6 °C 1030 hPa NW 10.1 km/h 16.7 km/h 50 % 0 mm
02:28 -4.8 °C -14.1 °C 1030 hPa NW 14.5 km/h 25.7 km/h 48 % 0 mm
02:33 -4.8 °C -14.4 °C 1029.7 hPa NNW 8.4 km/h 24.1 km/h 47 % 0 mm
02:38 -4.9 °C -14.3 °C 1029.7 hPa NW 11.3 km/h 25.7 km/h 48 % 0 mm
02:43 -4.9 °C -14.6 °C 1029.7 hPa NW 12.9 km/h 27.4 km/h 47 % 0 mm
02:48 -5 °C -14.1 °C 1029.7 hPa NW 11.3 km/h 25.7 km/h 49 % 0 mm
02:53 -5 °C -14.1 °C 1029.7 hPa NW 12.9 km/h 22.2 km/h 49 % 0 mm
02:58 -5.1 °C -13.9 °C 1029.7 hPa North 14.2 km/h 33.8 km/h 50 % 0 mm
03:03 -5.1 °C -14.1 °C 1030 hPa NW 13.8 km/h 24.1 km/h 49 % 0 mm
03:08 -5.1 °C -13.9 °C 1029.7 hPa WNW 12.1 km/h 20.9 km/h 50 % 0 mm
03:13 -5.1 °C -13.4 °C 1030 hPa NW 18.5 km/h 29.6 km/h 52 % 0 mm
03:18 -5.2 °C -14.2 °C 1030 hPa NW 17.5 km/h 27.8 km/h 49 % 0 mm
03:24 -5.2 °C -14.1 °C 1030 hPa North 9.2 km/h 11.3 km/h 50 % 0 mm
03:29 -5.2 °C -13.6 °C 1030 hPa NNE 12.2 km/h 18.5 km/h 52 % 0 mm
03:32 -5.2 °C -13.6 °C 1030 hPa WNW 10.6 km/h 18.5 km/h 52 % 0 mm
03:37 -5.3 °C -13.8 °C 1030 hPa WNW 18.5 km/h 31.5 km/h 51 % 0 mm
03:42 -5.4 °C -14.4 °C 1030 hPa NW 16.1 km/h 27.8 km/h 49 % 0 mm
03:47 -5.4 °C -13.7 °C 1030 hPa NW 8.9 km/h 17.7 km/h 52 % 0 mm
03:52 -5.4 °C -14 °C 1030 hPa WNW 15.4 km/h 24.1 km/h 51 % 0 mm
03:58 -5.5 °C -14.3 °C 1030 hPa NW 12.6 km/h 18.5 km/h 50 % 0 mm
04:03 -5.6 °C -14.1 °C 1030.4 hPa NW 8.4 km/h 18.5 km/h 51 % 0 mm
04:08 -5.6 °C -13.6 °C 1030.4 hPa WNW 8.7 km/h 22.2 km/h 53 % 0 mm
04:13 -5.6 °C -14.1 °C 1030.7 hPa WNW 13.7 km/h 24.1 km/h 51 % 0 mm
04:18 -5.6 °C -13.9 °C 1030.7 hPa NW 10.1 km/h 18.5 km/h 52 % 0 mm
04:23 -5.6 °C -13.9 °C 1030.7 hPa NW 10.5 km/h 25.9 km/h 52 % 0 mm
04:28 -5.7 °C -14 °C 1030.7 hPa WNW 8 km/h 19.3 km/h 52 % 0 mm
04:33 -5.7 °C -13.7 °C 1030.7 hPa WNW 7.2 km/h 18.5 km/h 53 % 0 mm
04:38 -5.7 °C -13.6 °C 1030.7 hPa WNW 8 km/h 16.7 km/h 54 % 0 mm
04:44 -5.7 °C -13.8 °C 1030.7 hPa NNE 7.1 km/h 16.7 km/h 53 % 0 mm
04:48 -5.7 °C -13.8 °C 1030.7 hPa WNW 8.4 km/h 18.5 km/h 53 % 0 mm
04:54 -5.8 °C -13.6 °C 1030.7 hPa West 8.7 km/h 18.5 km/h 54 % 0 mm
04:59 -5.8 °C -13.4 °C 1030.7 hPa WNW 12.2 km/h 20.9 km/h 55 % 0 mm
05:04 -5.8 °C -13.8 °C 1030.4 hPa NNW 4.3 km/h 11.1 km/h 53 % 0 mm
05:09 -5.8 °C -14.1 °C 1030.4 hPa NNW 8.4 km/h 20.4 km/h 52 % 0 mm
05:14 -5.8 °C -13.7 °C 1030.7 hPa WNW 12.6 km/h 12.6 km/h 54 % 0 mm
05:19 -5.8 °C -13.7 °C 1030.7 hPa WSW 8.7 km/h 16.7 km/h 54 % 0 mm
05:24 -5.8 °C -13.9 °C 1030.7 hPa WNW 6.4 km/h 13 km/h 53 % 0 mm
05:29 -5.9 °C -13.9 °C 1030.7 hPa NW 5.8 km/h 13 km/h 53 % 0 mm
05:34 -5.9 °C -13.7 °C 1030.7 hPa NW 11.6 km/h 16.7 km/h 54 % 0 mm
05:39 -5.9 °C -13.5 °C 1030.7 hPa WNW 10.3 km/h 18.5 km/h 55 % 0 mm
05:44 -5.9 °C -13.5 °C 1031 hPa West 6.3 km/h 14.8 km/h 55 % 0 mm
05:49 -5.9 °C -13.8 °C 1031 hPa WNW 11.4 km/h 25.7 km/h 54 % 0 mm
05:55 -6 °C -13.8 °C 1031 hPa WSW 10.3 km/h 18.5 km/h 54 % 0 mm
06:00 -6 °C -13.6 °C 1031 hPa WNW 12.2 km/h 18.5 km/h 55 % 0 mm
06:05 -6 °C -13.6 °C 1031 hPa WNW 4.8 km/h 8 km/h 55 % 0 mm
06:10 -6 °C -13.6 °C 1031 hPa WSW 5.3 km/h 14.5 km/h 55 % 0 mm
06:15 -6.1 °C -13.7 °C 1031 hPa NW 8.7 km/h 14.8 km/h 55 % 0 mm
06:20 -6.1 °C -13.4 °C 1031.4 hPa WNW 11.1 km/h 24.1 km/h 56 % 0 mm
06:30 -6.1 °C -13.4 °C 1031.4 hPa WNW 6.8 km/h 13 km/h 56 % 0 mm
06:35 -6.1 °C -13.2 °C 1031.4 hPa WNW 6.1 km/h 13 km/h 57 % 0 mm
06:40 -6 °C -13.4 °C 1031.4 hPa WNW 6.1 km/h 13 km/h 56 % 0 mm
06:41 -6 °C -13.4 °C 1031.4 hPa West 7.6 km/h 13 km/h 56 % 0 mm
06:46 -5.9 °C -13.1 °C 1031.7 hPa NW 6.4 km/h 14.8 km/h 57 % 0 mm
06:51 -5.9 °C -13.1 °C 1031.7 hPa WSW 6.4 km/h 12.9 km/h 57 % 0 mm
06:56 -5.8 °C -13 °C 1031.7 hPa WNW 7.4 km/h 12.9 km/h 57 % 0 mm
07:01 -5.8 °C -13.2 °C 1031.4 hPa WNW 8.5 km/h 18.5 km/h 56 % 0 mm
07:06 -5.8 °C -13.4 °C 1031.7 hPa WNW 5.6 km/h 14.8 km/h 55 % 0 mm
07:11 -5.8 °C -13.2 °C 1031.7 hPa WNW 5.1 km/h 7.4 km/h 56 % 0 mm
07:16 -5.7 °C -13.1 °C 1031.7 hPa WSW 5.8 km/h 11.1 km/h 56 % 0 mm
07:18 -5.6 °C -13.2 °C 1031.7 hPa WNW 5.8 km/h 14.8 km/h 55 % 0 mm
07:23 -5.5 °C -13.1 °C 1031.7 hPa West 6.8 km/h 13 km/h 55 % 0 mm
07:28 -5.4 °C -13 °C 1032.1 hPa WNW 12.9 km/h 19.3 km/h 55 % 0 mm
07:33 -5.3 °C -12.9 °C 1032.1 hPa WNW 4.8 km/h 19.3 km/h 55 % 0 mm
07:38 -5.2 °C -12.7 °C 1032.1 hPa WNW 8 km/h 16.1 km/h 56 % 0 mm
07:43 -5.1 °C -12.5 °C 1032.1 hPa WNW 12.9 km/h 22.5 km/h 56 % 0 mm
07:48 -5 °C -12.6 °C 1032.1 hPa West 14.5 km/h 24.1 km/h 55 % 0 mm
07:53 -4.9 °C -12.8 °C 1032.1 hPa West 9.7 km/h 22.5 km/h 54 % 0 mm
07:58 -4.9 °C -12.8 °C 1032.1 hPa NW 4.2 km/h 14.8 km/h 54 % 0 mm
08:03 -4.8 °C -12.5 °C 1032.1 hPa NW 4.8 km/h 11.1 km/h 55 % 0 mm
08:08 -4.8 °C -12.7 °C 1032.1 hPa WNW 9.7 km/h 19.3 km/h 54 % 0 mm
08:13 -4.8 °C -12.4 °C 1032.4 hPa West 6.6 km/h 13 km/h 55 % 0 mm
08:18 -4.8 °C -12.9 °C 1032.1 hPa WNW 8 km/h 16.1 km/h 53 % 0 mm
08:23 -4.8 °C -12.9 °C 1032.1 hPa WNW 8 km/h 16.7 km/h 53 % 0 mm
08:28 -4.8 °C -12.7 °C 1032.1 hPa WNW 9.7 km/h 25.7 km/h 54 % 0 mm
08:33 -4.7 °C -12.4 °C 1032.1 hPa WSW 8 km/h 18.5 km/h 55 % 0 mm
08:38 -4.7 °C -12.2 °C 1032.1 hPa West 11.3 km/h 24.1 km/h 56 % 0 mm
08:43 -4.8 °C -12.2 °C 1032.1 hPa West 9.7 km/h 16.1 km/h 56 % 0 mm
08:48 -4.8 °C -12.5 °C 1032.1 hPa West 9.7 km/h 25.7 km/h 55 % 0 mm
08:53 -4.8 °C -12.4 °C 1031.7 hPa WNW 12.6 km/h 24.1 km/h 55 % 0 mm
08:58 -4.6 °C -12.8 °C 1031.7 hPa WNW 12.4 km/h 20.4 km/h 53 % 0 mm
09:03 -4.5 °C -13.1 °C 1031.7 hPa WNW 9.7 km/h 16.7 km/h 51 % 0 mm
09:08 -4.2 °C -12.2 °C 1031.7 hPa West 8 km/h 19.3 km/h 54 % 0 mm
09:13 -4.1 °C -12.5 °C 1031.7 hPa WNW 13 km/h 27.8 km/h 52 % 0 mm
09:18 -3.9 °C -12.8 °C 1031.7 hPa WNW 9.7 km/h 18.5 km/h 50 % 0 mm
09:23 -3.8 °C -12.7 °C 1031.7 hPa WNW 13 km/h 22.2 km/h 50 % 0 mm
09:29 -3.7 °C -12.7 °C 1031.7 hPa NW 12.7 km/h 18.5 km/h 50 % 0 mm
09:34 -3.6 °C -12.5 °C 1031.7 hPa NW 8.9 km/h 24.1 km/h 50 % 0 mm
09:39 -3.4 °C -12.2 °C 1031.7 hPa NW 11.7 km/h 25.9 km/h 51 % 0 mm
09:44 -3.3 °C -12.1 °C 1031.7 hPa NNW 10.8 km/h 18.5 km/h 51 % 0 mm
09:45 -3.3 °C -12.1 °C 1031.7 hPa NNW 4.2 km/h 20.4 km/h 51 % 0 mm
09:50 -3.2 °C -12.2 °C 1031.7 hPa NNW 6.3 km/h 18.5 km/h 50 % 0 mm
09:55 -3.2 °C -11.9 °C 1031.4 hPa WSW 6.9 km/h 20.9 km/h 51 % 0 mm
10:00 -3.1 °C -12.1 °C 1031.4 hPa NNW 6 km/h 14.8 km/h 50 % 0 mm
10:05 -2.9 °C -11.9 °C 1031.4 hPa NNW 12.9 km/h 18.5 km/h 50 % 0 mm
10:10 -2.8 °C -11.8 °C 1031.4 hPa NNW 10.9 km/h 16.7 km/h 50 % 0 mm
10:15 -2.7 °C -12 °C 1031.4 hPa WNW 6.8 km/h 16.7 km/h 49 % 0 mm
10:20 -2.7 °C -11.9 °C 1031 hPa WNW 10.5 km/h 31.5 km/h 49 % 0 mm
10:26 -2.7 °C -11.7 °C 1031 hPa WNW 11.4 km/h 20.9 km/h 50 % 0 mm
10:31 -2.6 °C -11.8 °C 1031 hPa WNW 6.3 km/h 18.5 km/h 49 % 0 mm
10:36 -2.4 °C -12 °C 1031 hPa NNW 14 km/h 18.5 km/h 48 % 0 mm
10:41 -2.2 °C -11.8 °C 1031 hPa WSW 9.8 km/h 22.2 km/h 48 % 0 mm
10:46 -2.1 °C -11.7 °C 1031 hPa NW 7.1 km/h 17.7 km/h 48 % 0 mm
10:51 -2.2 °C -11.4 °C 1031 hPa NW 6.1 km/h 25.9 km/h 49 % 0 mm
10:56 -2.2 °C -11.8 °C 1031 hPa WNW 8.9 km/h 18.5 km/h 48 % 0 mm
11:01 -2.3 °C -11.6 °C 1031 hPa NW 15.9 km/h 33.3 km/h 49 % 0 mm
11:06 -2.3 °C -11.3 °C 1030.7 hPa West 10.3 km/h 18.5 km/h 50 % 0 mm
11:11 -2.4 °C -11.9 °C 1031 hPa WNW 13.4 km/h 29.6 km/h 48 % 0 mm
11:16 -2.3 °C -12.1 °C 1030.7 hPa WNW 12.9 km/h 20.4 km/h 47 % 0 mm
11:21 -2.1 °C -12.4 °C 1030.7 hPa NNW 10.1 km/h 16.1 km/h 45 % 0 mm
11:27 -2.2 °C -12.1 °C 1030.7 hPa WNW 13.4 km/h 20.4 km/h 47 % 0 mm
11:32 -2.3 °C -12.4 °C 1030.7 hPa NW 4.7 km/h 14.8 km/h 46 % 0 mm
11:37 -2.4 °C -11.9 °C 1030.7 hPa NW 13.5 km/h 22.5 km/h 48 % 0 mm
11:42 -2.3 °C -12.4 °C 1030.7 hPa WNW 13.4 km/h 18.5 km/h 46 % 0 mm
11:47 -2.4 °C -12.4 °C 1030.7 hPa WNW 12.9 km/h 20.4 km/h 46 % 0 mm
11:52 -2.4 °C -12.2 °C 1030.4 hPa NW 10 km/h 18.5 km/h 47 % 0 mm
11:57 -2.2 °C -11.4 °C 1030.7 hPa NNW 10.3 km/h 22.2 km/h 49 % 0 mm
12:02 -1.9 °C -11.2 °C 1030.7 hPa NNW 13 km/h 24.1 km/h 49 % 0 mm
12:07 -1.8 °C -11.2 °C 1030.4 hPa NW 13.4 km/h 24.1 km/h 49 % 0 mm
12:12 -2 °C -10.8 °C 1030.7 hPa NW 15.3 km/h 31.5 km/h 51 % 0 mm
12:17 -2 °C -10.6 °C 1030.4 hPa NW 14.5 km/h 24.1 km/h 52 % 0 mm
12:22 -1.9 °C -10.8 °C 1030.4 hPa NNW 14 km/h 31.5 km/h 51 % 0 mm
12:28 -1.9 °C -10.9 °C 1030 hPa WNW 11.3 km/h 11.3 km/h 50 % 0 mm
12:33 -1.9 °C -11.5 °C 1030 hPa WNW 10.8 km/h 18.5 km/h 48 % 0 mm
12:38 -1.8 °C -11.2 °C 1030 hPa SW 18 km/h 24.1 km/h 49 % 0 mm
12:43 -1.5 °C -11.1 °C 1030 hPa West 14 km/h 25.9 km/h 48 % 0 mm
12:48 -1.3 °C -11.4 °C 1030 hPa WNW 14.5 km/h 32.2 km/h 46 % 0 mm
12:53 -1.2 °C -11.3 °C 1030 hPa NW 19.3 km/h 37 km/h 46 % 0 mm
12:58 -1.2 °C -11.4 °C 1030 hPa NNW 16.4 km/h 31.5 km/h 46 % 0 mm
13:03 -1.4 °C -12.2 °C 1029.7 hPa WNW 13.8 km/h 25.9 km/h 44 % 0 mm
13:08 -1.4 °C -11.6 °C 1029.7 hPa West 15.3 km/h 27.8 km/h 46 % 0 mm
13:13 -1.3 °C -12 °C 1029.7 hPa NNW 16.9 km/h 33.8 km/h 44 % 0 mm
13:18 -1.4 °C -12.4 °C 1029.7 hPa WNW 16.4 km/h 27.8 km/h 43 % 0 mm
13:23 -1.5 °C -12.5 °C 1029.3 hPa NW 16.1 km/h 35.2 km/h 43 % 0 mm
13:28 -1.2 °C -11.7 °C 1029.3 hPa WNW 20.3 km/h 31.5 km/h 45 % 0 mm
13:34 -1.1 °C -12.4 °C 1029.3 hPa WNW 21.2 km/h 37 km/h 42 % 0 mm
13:39 -1 °C -12 °C 1029 hPa NW 16.1 km/h 29 km/h 43 % 0 mm
13:44 -0.9 °C -11.9 °C 1029.3 hPa West 20.6 km/h 24.1 km/h 43 % 0 mm
13:49 -0.7 °C -11.5 °C 1029.3 hPa WNW 11.1 km/h 14.8 km/h 44 % 0 mm
13:54 -0.8 °C -12.4 °C 1029.3 hPa West 21.4 km/h 31.5 km/h 41 % 0 mm
13:59 -0.8 °C -12.4 °C 1029.3 hPa NW 23.7 km/h 38.9 km/h 41 % 0 mm
14:04 -0.9 °C -12.9 °C 1029.3 hPa WSW 16.7 km/h 38.9 km/h 40 % 0 mm
14:09 -0.9 °C -13.2 °C 1029.3 hPa West 19.2 km/h 31.5 km/h 39 % 0 mm
14:14 -0.9 °C -13.1 °C 1029.3 hPa West 13.2 km/h 37 km/h 39 % 0 mm
14:19 -0.7 °C -12 °C 1029.3 hPa WNW 20.8 km/h 35.2 km/h 42 % 0 mm
14:24 -0.6 °C -12.8 °C 1029.3 hPa WNW 13.8 km/h 31.5 km/h 39 % 0 mm
14:29 -0.6 °C -12.5 °C 1029.3 hPa WNW 17.1 km/h 32.2 km/h 40 % 0 mm
14:34 -0.7 °C -12.6 °C 1029.7 hPa NW 16.7 km/h 31.5 km/h 40 % 0 mm
14:39 -0.8 °C -14.4 °C 1029.7 hPa NNW 15.8 km/h 31.5 km/h 35 % 0 mm
14:45 -1.1 °C -14 °C 1029.3 hPa WNW 15.3 km/h 29.6 km/h 37 % 0 mm
14:50 -1.4 °C -14.6 °C 1029.3 hPa WNW 23.7 km/h 35.2 km/h 36 % 0 mm
14:55 -1.5 °C -13.7 °C 1029.7 hPa NNW 17.7 km/h 37 km/h 39 % 0 mm
14:58 -1.4 °C -13.3 °C 1029.7 hPa NNW 15.4 km/h 27.8 km/h 40 % 0 mm
15:03 -1.4 °C -14.3 °C 1029.3 hPa NW 13 km/h 22.2 km/h 37 % 0 mm
15:08 -1.5 °C -14 °C 1029.3 hPa NW 21.7 km/h 37 km/h 38 % 0 mm
15:13 -1.6 °C -14.7 °C 1029.3 hPa NW 18.3 km/h 31.5 km/h 36 % 0 mm
15:18 -1.7 °C -14.9 °C 1029.7 hPa NW 20.4 km/h 33.3 km/h 36 % 0 mm
15:23 -1.8 °C -14.9 °C 1029.3 hPa NW 14 km/h 20.9 km/h 36 % 0 mm
15:29 -1.8 °C -14.9 °C 1029.3 hPa NNW 13 km/h 29.6 km/h 36 % 0 mm
15:34 -1.9 °C -15.3 °C 1029.7 hPa West 9.8 km/h 31.5 km/h 35 % 0 mm
15:39 -1.8 °C -14.9 °C 1029.7 hPa West 14.8 km/h 25.9 km/h 36 % 0 mm
15:44 -1.8 °C -15.3 °C 1029.7 hPa NNW 9.2 km/h 29.6 km/h 35 % 0 mm
15:49 -1.9 °C -15.3 °C 1029.7 hPa NW 14.5 km/h 27.8 km/h 35 % 0 mm
15:54 -1.9 °C -15.8 °C 1029.7 hPa NW 15.4 km/h 30.6 km/h 34 % 0 mm
15:59 -2 °C -15.4 °C 1029.7 hPa WNW 17.9 km/h 31.5 km/h 35 % 0 mm
16:04 -2.1 °C -15.9 °C 1029.7 hPa WNW 11.3 km/h 25.9 km/h 34 % 0 mm
16:09 -2.2 °C -15.6 °C 1029.7 hPa NNW 17.4 km/h 29.6 km/h 35 % 0 mm
16:14 -2.2 °C -15.3 °C 1029.7 hPa North 7.6 km/h 24.1 km/h 36 % 0 mm
16:19 -2.2 °C -15.6 °C 1029.7 hPa North 16.1 km/h 24.1 km/h 35 % 0 mm
16:24 -2.2 °C -15 °C 1030 hPa NNW 17.2 km/h 33.8 km/h 37 % 0 mm
16:29 -2.3 °C -15 °C 1030 hPa WNW 9.5 km/h 18.5 km/h 37 % 0 mm
16:34 -2.3 °C -15.4 °C 1030.4 hPa North 14.6 km/h 29.6 km/h 36 % 0 mm
16:39 -2.4 °C -14.8 °C 1030 hPa NNW 9 km/h 24.1 km/h 38 % 0 mm
16:45 -2.4 °C -15.2 °C 1030.4 hPa North 10.6 km/h 24.1 km/h 37 % 0 mm
16:50 -2.5 °C -15.2 °C 1030.4 hPa NW 10.6 km/h 18.5 km/h 37 % 0 mm
16:55 -2.6 °C -15.3 °C 1030.7 hPa NNW 15.1 km/h 25.9 km/h 37 % 0 mm
17:00 -2.7 °C -15.7 °C 1030.7 hPa WNW 15.4 km/h 25.9 km/h 36 % 0 mm
17:05 -2.8 °C -16.2 °C 1030.7 hPa NNW 12.6 km/h 24.1 km/h 35 % 0 mm
17:10 -2.8 °C -16.2 °C 1030.7 hPa North 15.6 km/h 31.5 km/h 35 % 0 mm
17:15 -2.9 °C -16.7 °C 1031 hPa NNW 15.3 km/h 25.9 km/h 34 % 0 mm
17:20 -3.1 °C -16.7 °C 1031 hPa SW 17.9 km/h 31.5 km/h 34 % 0 mm
17:26 -3.1 °C -16.1 °C 1031 hPa NW 13.8 km/h 25.9 km/h 36 % 0 mm
17:31 -3.2 °C -16.5 °C 1031.4 hPa NNW 13.5 km/h 31.5 km/h 35 % 0 mm
17:36 -3.2 °C -16.2 °C 1031.4 hPa NW 11.3 km/h 25.9 km/h 36 % 0 mm
17:41 -3.3 °C -16.6 °C 1031.4 hPa NW 12.9 km/h 18.5 km/h 35 % 0 mm
17:46 -3.3 °C -15.3 °C 1031.4 hPa NW 13.8 km/h 31.5 km/h 39 % 0 mm
17:51 -3.4 °C -16.4 °C 1031.4 hPa WNW 18.5 km/h 18.5 km/h 36 % 0 mm
17:56 -3.5 °C -16.8 °C 1031.7 hPa NNW 15.3 km/h 24.1 km/h 35 % 0 mm
18:01 -3.6 °C -16.8 °C 1032.1 hPa West 12.2 km/h 29.6 km/h 35 % 0 mm
18:06 -3.7 °C -16.9 °C 1032.1 hPa NNW 12.1 km/h 16.7 km/h 35 % 0 mm
18:11 -3.7 °C -16.7 °C 1032.1 hPa NW 10.8 km/h 22.2 km/h 36 % 0 mm
18:16 -3.8 °C -16.4 °C 1032.1 hPa NW 17.5 km/h 24.1 km/h 37 % 0 mm
18:21 -3.8 °C -16.1 °C 1032.4 hPa NNW 7.2 km/h 11.1 km/h 38 % 0 mm
18:26 -3.8 °C -16.1 °C 1032.4 hPa NW 8.4 km/h 14.8 km/h 38 % 0 mm
18:31 -3.9 °C -16.2 °C 1032.4 hPa NNW 12.4 km/h 25.9 km/h 38 % 0 mm
18:37 -3.9 °C -16.2 °C 1032.4 hPa NNW 12.7 km/h 22.2 km/h 38 % 0 mm
18:42 -4 °C -17.2 °C 1032.4 hPa NNW 15 km/h 22.5 km/h 35 % 0 mm
18:47 -4.1 °C -17 °C 1032.4 hPa WNW 16.9 km/h 29.6 km/h 36 % 0 mm
18:52 -4.2 °C -16.4 °C 1032.4 hPa NE 14.5 km/h 20.4 km/h 38 % 0 mm
18:57 -4.3 °C -16.2 °C 1032.4 hPa NNE 18.5 km/h 27.4 km/h 39 % 0 mm
19:02 -4.3 °C -16.6 °C 1032.7 hPa NNE 13.2 km/h 18.5 km/h 38 % 0 mm
19:07 -4.4 °C -16.9 °C 1032.7 hPa NNE 6.9 km/h 24.1 km/h 37 % 0 mm
19:12 -4.5 °C -17 °C 1032.7 hPa NW 9.5 km/h 16.7 km/h 37 % 0 mm
19:17 -4.6 °C -17.1 °C 1032.7 hPa North 6.6 km/h 11.1 km/h 37 % 0 mm
19:22 -4.7 °C -16.8 °C 1032.7 hPa North 17.5 km/h 25.9 km/h 38 % 0 mm
19:27 -4.7 °C -16.8 °C 1032.7 hPa NNW 14.3 km/h 25.9 km/h 38 % 0 mm
19:32 -4.7 °C -16.6 °C 1032.7 hPa North 13.2 km/h 19.3 km/h 39 % 0 mm
19:37 -4.8 °C -17.3 °C 1032.7 hPa North 13.8 km/h 18.5 km/h 37 % 0 mm
19:43 -4.8 °C -17 °C 1032.7 hPa NNW 12.1 km/h 25.9 km/h 38 % 0 mm
19:48 -4.9 °C -17.4 °C 1032.7 hPa NNE 12.4 km/h 22.2 km/h 37 % 0 mm
19:53 -4.9 °C -16.2 °C 1032.7 hPa NE 8.9 km/h 18.5 km/h 41 % 0 mm
19:58 -4.9 °C -16.8 °C 1032.7 hPa North 8 km/h 27.8 km/h 39 % 0 mm
20:03 -5 °C -16.8 °C 1032.7 hPa NNW 11.3 km/h 29 km/h 39 % 0 mm
20:08 -5.1 °C -16.9 °C 1032.7 hPa North 11.3 km/h 22.5 km/h 39 % 0 mm
20:13 -5.1 °C -17.3 °C 1033.1 hPa North 14.5 km/h 24.1 km/h 38 % 0 mm
20:18 -5.2 °C -17 °C 1033.1 hPa NNW 16.1 km/h 29 km/h 39 % 0 mm
20:23 -5.3 °C -17.1 °C 1033.1 hPa North 10.9 km/h 16.7 km/h 39 % 0 mm
20:28 -5.3 °C -17.1 °C 1033.1 hPa NNW 11.3 km/h 32.2 km/h 39 % 0 mm
20:33 -5.3 °C -17.2 °C 1033.4 hPa NNW 6.9 km/h 22.2 km/h 39 % 0 mm
20:38 -5.4 °C -16.3 °C 1033.4 hPa North 11.3 km/h 19.3 km/h 42 % 0 mm
20:43 -5.4 °C -16.7 °C 1033.4 hPa North 15.4 km/h 25.7 km/h 41 % 0 mm
20:48 -5.5 °C -16.7 °C 1033.7 hPa NNW 14.5 km/h 24.1 km/h 41 % 0 mm
20:53 -5.6 °C -16.7 °C 1033.7 hPa WNW 11.7 km/h 14.8 km/h 41 % 0 mm
20:58 -5.6 °C -16.8 °C 1033.7 hPa North 14.3 km/h 17.7 km/h 41 % 0 mm
21:03 -5.7 °C -17.4 °C 1033.7 hPa NW 7.6 km/h 16.7 km/h 39 % 0 mm
21:08 -5.8 °C -17.2 °C 1033.7 hPa NW 7.1 km/h 18.5 km/h 40 % 0 mm
21:13 -5.8 °C -17.6 °C 1033.7 hPa NW 9.5 km/h 18.5 km/h 39 % 0 mm
21:18 -5.9 °C -16.8 °C 1034.1 hPa WNW 12.7 km/h 24.1 km/h 42 % 0 mm
21:23 -5.9 °C -17.1 °C 1034.1 hPa NE 8.5 km/h 16.7 km/h 41 % 0 mm
21:28 -6 °C -16.9 °C 1034.1 hPa North 7.9 km/h 16.7 km/h 42 % 0 mm
21:33 -6.1 °C -17.2 °C 1034.1 hPa NW 15.3 km/h 27.4 km/h 41 % 0 mm
21:38 -6.1 °C -17.3 °C 1034.1 hPa NNW 6.8 km/h 16.7 km/h 41 % 0 mm
21:44 -6.2 °C -17.7 °C 1034.1 hPa NW 13 km/h 25.9 km/h 40 % 0 mm
21:49 -6.3 °C -17.4 °C 1034.1 hPa NNW 15.6 km/h 31.5 km/h 41 % 0 mm
21:54 -6.3 °C -17.4 °C 1034.1 hPa NNW 13 km/h 18.5 km/h 41 % 0 mm
21:59 -6.4 °C -18.4 °C 1034.4 hPa North 10 km/h 29.6 km/h 38 % 0 mm
22:04 -6.5 °C -17.9 °C 1034.1 hPa North 11.6 km/h 20.4 km/h 40 % 0 mm
22:09 -6.6 °C -16.8 °C 1034.4 hPa WNW 12.9 km/h 20.4 km/h 44 % 0 mm
22:14 -6.6 °C -16.6 °C 1034.4 hPa NW 7.2 km/h 16.7 km/h 45 % 0 mm
22:19 -6.6 °C -17.2 °C 1034.1 hPa NW 13.5 km/h 25.9 km/h 43 % 0 mm
22:24 -6.6 °C -17.2 °C 1034.1 hPa NW 12.2 km/h 25.7 km/h 43 % 0 mm
22:29 -6.7 °C -17.2 °C 1034.1 hPa NNW 11.4 km/h 18.5 km/h 43 % 0 mm
22:34 -6.8 °C -17.6 °C 1034.1 hPa NW 10.3 km/h 22.2 km/h 42 % 0 mm
22:39 -6.9 °C -17.9 °C 1034.4 hPa NW 13.7 km/h 20.4 km/h 41 % 0 mm
22:44 -6.9 °C -17.2 °C 1034.1 hPa NW 6.8 km/h 13 km/h 44 % 0 mm
22:46 -6.9 °C -17.2 °C 1034.1 hPa West 10.8 km/h 18.5 km/h 44 % 0 mm
22:51 -7 °C -17.5 °C 1034.1 hPa NW 9.8 km/h 24.1 km/h 43 % 0 mm
22:56 -7.1 °C -17.8 °C 1034.1 hPa NW 9.8 km/h 24.1 km/h 42 % 0 mm
23:01 -7.1 °C -17.6 °C 1034.4 hPa NNW 12.1 km/h 20.9 km/h 43 % 0 mm
23:06 -7.1 °C -17.6 °C 1034.1 hPa North 11.7 km/h 22.2 km/h 43 % 0 mm
23:11 -7.2 °C -17.7 °C 1034.1 hPa North 14.8 km/h 27.8 km/h 43 % 0 mm
23:16 -7.2 °C -17.2 °C 1034.1 hPa NW 15.4 km/h 25.9 km/h 45 % 0 mm
23:21 -7.3 °C -17.5 °C 1034.1 hPa NW 11.9 km/h 27.8 km/h 44 % 0 mm
23:26 -7.3 °C -17.5 °C 1034.4 hPa North 13 km/h 20.4 km/h 44 % 0 mm
23:31 -7.4 °C -17.6 °C 1034.1 hPa NNE 17.5 km/h 31.5 km/h 44 % 0 mm
23:37 -7.4 °C -17.4 °C 1034.4 hPa NE 19.2 km/h 31.5 km/h 45 % 0 mm
23:42 -7.4 °C -17.4 °C 1034.1 hPa NW 14 km/h 27.8 km/h 45 % 0 mm
23:47 -7.5 °C -17.4 °C 1034.4 hPa NW 10.8 km/h 17.7 km/h 45 % 0 mm
23:52 -7.6 °C -17.7 °C 1034.4 hPa North 14 km/h 18.5 km/h 44 % 0 mm
23:57 -7.7 °C -17.8 °C 1034.4 hPa North 14.8 km/h 22.2 km/h 44 % 0 mm
Crab Meadow Weather
Compliments of Weather Underground - 3 mb

Script developed by  Jim McMurry - jmcmurry@mwt.net Adapted for the template by  Wim van der Kuil - Leuven-Template.eu

Recycling: The average household throws away 13,000 separate pieces of paper each year. Most is packaging and junk mail.